Time;durP1;ratioP1;P1;durP2;ratioP2;P2;SDS_P1;SDS_P2;PMS_P1;PMS_P2;Temp;Humidity;BMP_temperature;BMP_pressure;BME280_temperature;BME280_humidity;BME280_pressure;Samples;Min_cycle;Max_cycle;Signal;HPM_P1;HPM_P2
2023/10/26 00:00:24;;;;;;;3.13;0.90;;;10.30;99.90;;;;;;5044854;28;20297;-71
2023/10/26 00:02:49;;;;;;;4.80;0.70;;;10.40;99.90;;;;;;5062156;28;20236;-74
2023/10/26 00:05:15;;;;;;;1.20;0.60;;;10.40;99.90;;;;;;5064215;28;20605;-71
2023/10/26 00:07:41;;;;;;;1.10;0.40;;;10.30;99.90;;;;;;5062176;28;20184;-71
2023/10/26 00:10:07;;;;;;;2.10;0.63;;;10.30;99.90;;;;;;5062726;28;20266;-71
2023/10/26 00:12:32;;;;;;;2.30;0.90;;;10.30;99.90;;;;;;5060173;28;20685;-73
2023/10/26 00:14:58;;;;;;;1.30;0.60;;;10.40;99.90;;;;;;5062173;28;20427;-74
2023/10/26 00:17:24;;;;;;;3.73;1.17;;;10.40;99.90;;;;;;5061650;28;20251;-73
2023/10/26 00:19:52;;;;;;;3.20;0.60;;;10.30;99.90;;;;;;5061999;28;20204;-73
2023/10/26 00:22:21;;;;;;;4.03;1.13;;;10.30;99.90;;;;;;5062586;28;20568;-72
2023/10/26 00:24:46;;;;;;;1.80;0.90;;;10.40;99.90;;;;;;5060632;28;21006;-71
2023/10/26 00:27:14;;;;;;;4.23;0.80;;;10.40;99.90;;;;;;5061677;28;20424;-74
2023/10/26 00:29:40;;;;;;;1.80;0.60;;;10.40;99.90;;;;;;5043962;28;21043;-71
2023/10/26 00:32:06;;;;;;;1.20;0.60;;;10.40;99.90;;;;;;5062265;28;20459;-72
2023/10/26 00:34:33;;;;;;;2.03;0.93;;;10.40;99.90;;;;;;5062751;28;20791;-72
2023/10/26 00:36:58;;;;;;;1.40;0.50;;;10.40;99.90;;;;;;5062604;28;20934;-74
2023/10/26 00:39:24;;;;;;;1.10;0.50;;;10.50;99.90;;;;;;5061807;28;20462;-72
2023/10/26 00:41:51;;;;;;;1.40;0.60;;;10.50;99.90;;;;;;5061550;28;20205;-71
2023/10/26 00:44:17;;;;;;;1.13;0.53;;;10.50;99.90;;;;;;5072400;28;20323;-74
2023/10/26 00:46:43;;;;;;;2.20;1.03;;;10.50;99.90;;;;;;5068628;28;20557;-71
2023/10/26 00:49:12;;;;;;;2.30;0.70;;;10.50;99.90;;;;;;5069127;28;20267;-69
2023/10/26 00:51:38;;;;;;;1.23;0.60;;;10.60;99.90;;;;;;5074003;28;20465;-69
2023/10/26 00:54:05;;;;;;;1.10;0.47;;;10.50;99.90;;;;;;5079147;28;20474;-72
2023/10/26 00:56:32;;;;;;;2.60;0.50;;;10.40;99.90;;;;;;5080255;28;20422;-74
2023/10/26 00:58:58;;;;;;;1.10;0.50;;;10.40;99.90;;;;;;5054990;28;20447;-74
2023/10/26 01:01:26;;;;;;;1.10;0.50;;;10.40;99.90;;;;;;5079432;28;20971;-73
2023/10/26 01:03:53;;;;;;;6.67;1.10;;;10.30;99.90;;;;;;5069535;28;20200;-73
2023/10/26 01:06:18;;;;;;;2.07;0.60;;;10.30;99.90;;;;;;5072391;28;20982;-71
2023/10/26 01:08:44;;;;;;;1.93;0.70;;;10.20;99.90;;;;;;5068332;28;20430;-72
2023/10/26 01:11:10;;;;;;;1.10;0.40;;;10.20;99.90;;;;;;5070946;28;20216;-73
2023/10/26 01:13:36;;;;;;;2.60;0.70;;;10.20;99.90;;;;;;5072744;28;20196;-72
2023/10/26 01:16:04;;;;;;;1.30;0.50;;;10.00;99.90;;;;;;5069440;28;20189;-73
2023/10/26 01:18:30;;;;;;;22.20;0.90;;;10.10;99.90;;;;;;5068800;28;20946;-72
2023/10/26 01:20:56;;;;;;;1.30;0.50;;;10.00;99.90;;;;;;5073389;28;20713;-71
2023/10/26 01:23:21;;;;;;;1.40;0.60;;;9.90;99.90;;;;;;5054045;28;20953;-74
2023/10/26 01:25:52;;;;;;;2.23;0.80;;;9.80;99.90;;;;;;5070513;28;20220;-72
2023/10/26 01:28:17;;;;;;;1.20;0.50;;;9.80;99.90;;;;;;5077733;28;20185;-71
2023/10/26 01:30:43;;;;;;;3.70;0.63;;;9.70;99.90;;;;;;5069224;28;20557;-72
2023/10/26 01:33:09;;;;;;;2.33;0.83;;;9.70;99.90;;;;;;5066687;28;20211;-71
2023/10/26 01:35:38;;;;;;;1.20;0.60;;;9.70;99.90;;;;;;5070170;28;20200;-72
2023/10/26 01:38:04;;;;;;;2.87;0.67;;;9.60;99.90;;;;;;5076428;28;20442;-72
2023/10/26 01:40:30;;;;;;;1.30;0.60;;;9.60;99.90;;;;;;5077601;28;20457;-72
2023/10/26 01:42:55;;;;;;;1.97;0.60;;;9.60;99.90;;;;;;5067558;28;21002;-71
2023/10/26 01:45:21;;;;;;;1.77;0.70;;;9.60;99.90;;;;;;5066077;28;20709;-71
2023/10/26 01:47:47;;;;;;;1.40;0.80;;;9.50;99.90;;;;;;5046486;28;20205;-72
2023/10/26 01:50:12;;;;;;;1.10;0.50;;;9.50;99.90;;;;;;5061444;28;20304;-73
2023/10/26 01:52:38;;;;;;;1.87;0.67;;;9.50;99.90;;;;;;5063283;28;20209;-71
2023/10/26 01:55:04;;;;;;;1.67;0.70;;;9.40;99.90;;;;;;5077854;28;20197;-79
2023/10/26 01:57:29;;;;;;;2.13;1.07;;;9.40;99.90;;;;;;5089835;28;20212;-80
2023/10/26 01:59:55;;;;;;;1.50;0.60;;;9.40;99.90;;;;;;5071856;28;20181;-77
2023/10/26 02:02:21;;;;;;;1.40;0.60;;;9.50;99.90;;;;;;5071158;28;20185;-74
2023/10/26 02:04:47;;;;;;;1.40;0.70;;;9.40;99.90;;;;;;5091997;28;20431;-79
2023/10/26 02:07:12;;;;;;;3.53;0.87;;;9.40;99.90;;;;;;5066444;28;20557;-72
2023/10/26 02:09:38;;;;;;;1.70;0.63;;;9.40;99.90;;;;;;5061177;28;20185;-73
2023/10/26 02:12:04;;;;;;;1.50;0.70;;;9.30;99.90;;;;;;5044558;28;20770;-71
2023/10/26 02:14:29;;;;;;;1.30;0.70;;;9.30;99.90;;;;;;5065501;28;20177;-73
2023/10/26 02:16:55;;;;;;;5.20;0.80;;;9.30;99.90;;;;;;5062491;28;20184;-75
2023/10/26 02:19:21;;;;;;;2.80;0.97;;;9.30;99.90;;;;;;5057730;28;20276;-71
2023/10/26 02:21:46;;;;;;;3.43;0.87;;;9.30;99.90;;;;;;5062099;28;20696;-73
2023/10/26 02:24:12;;;;;;;1.60;0.60;;;9.20;99.90;;;;;;5062062;28;20299;-73
2023/10/26 02:26:37;;;;;;;1.20;0.53;;;9.20;99.90;;;;;;5060718;28;20347;-75
2023/10/26 02:29:03;;;;;;;3.93;0.60;;;9.10;99.90;;;;;;5057213;28;20193;-71
2023/10/26 02:31:28;;;;;;;4.80;0.93;;;9.20;99.90;;;;;;5062374;28;20216;-71
2023/10/26 02:33:54;;;;;;;2.80;0.93;;;9.20;99.90;;;;;;5063120;28;20189;-72
2023/10/26 02:36:20;;;;;;;2.10;0.87;;;9.20;99.90;;;;;;5065761;28;20745;-77
2023/10/26 02:38:45;;;;;;;7.30;0.57;;;9.10;99.90;;;;;;5066915;28;20181;-79
2023/10/26 02:41:11;;;;;;;1.20;0.60;;;9.10;99.90;;;;;;5073636;28;20208;-72
2023/10/26 02:43:37;;;;;;;1.70;0.70;;;9.10;99.90;;;;;;5075639;28;20228;-74
2023/10/26 02:46:06;;;;;;;1.10;0.50;;;9.10;99.90;;;;;;5073572;28;20205;-74
2023/10/26 02:48:33;;;;;;;2.30;1.10;;;9.10;99.90;;;;;;5068816;28;20518;-72
2023/10/26 02:50:58;;;;;;;1.70;0.70;;;9.00;99.90;;;;;;5059170;28;20439;-71
2023/10/26 02:53:24;;;;;;;2.47;0.80;;;9.00;99.90;;;;;;5059314;28;20920;-74
2023/10/26 02:55:50;;;;;;;9.30;0.93;;;8.90;99.90;;;;;;5058112;28;21152;-70
2023/10/26 02:58:15;;;;;;;1.60;0.60;;;8.80;99.90;;;;;;5058877;28;20181;-71
2023/10/26 03:00:41;;;;;;;1.30;0.60;;;8.80;99.90;;;;;;5059086;28;20235;-72
2023/10/26 03:03:06;;;;;;;1.73;0.60;;;8.70;99.90;;;;;;5058812;28;20201;-73
2023/10/26 03:05:33;;;;;;;1.20;0.50;;;8.70;99.90;;;;;;5058161;28;20205;-73
2023/10/26 03:07:59;;;;;;;2.37;0.80;;;8.80;99.90;;;;;;5059095;28;20630;-73
2023/10/26 03:10:26;;;;;;;1.60;0.60;;;8.80;99.90;;;;;;5059120;28;20548;-72
2023/10/26 03:12:52;;;;;;;1.70;0.70;;;8.80;99.90;;;;;;5056453;28;20495;-74
2023/10/26 03:15:18;;;;;;;1.30;0.60;;;8.80;99.90;;;;;;5059227;28;20823;-72
2023/10/26 03:17:44;;;;;;;3.77;0.90;;;8.90;99.90;;;;;;5058597;28;20434;-72
2023/10/26 03:20:10;;;;;;;1.60;0.60;;;8.80;99.90;;;;;;5058950;28;20435;-70
2023/10/26 03:22:36;;;;;;;1.10;0.50;;;8.80;99.90;;;;;;5055899;28;21490;-70
2023/10/26 03:25:02;;;;;;;1.70;0.63;;;8.90;99.90;;;;;;5060497;28;20435;-70
2023/10/26 03:27:28;;;;;;;2.07;0.80;;;8.90;99.90;;;;;;5063617;28;20321;-71
2023/10/26 03:29:54;;;;;;;3.57;0.80;;;8.80;99.90;;;;;;5060678;28;20463;-71
2023/10/26 03:32:20;;;;;;;4.60;0.87;;;8.80;99.90;;;;;;5062677;28;20207;-70
2023/10/26 03:34:46;;;;;;;2.60;1.00;;;8.80;99.90;;;;;;5063176;28;20805;-72
2023/10/26 03:37:11;;;;;;;2.33;0.70;;;8.80;99.90;;;;;;5062644;28;20216;-74
2023/10/26 03:39:37;;;;;;;2.30;1.03;;;8.80;99.90;;;;;;5062017;28;20212;-72
2023/10/26 03:42:02;;;;;;;1.57;0.70;;;8.70;99.90;;;;;;5061727;28;20216;-73
2023/10/26 03:44:28;;;;;;;1.10;0.50;;;8.70;99.90;;;;;;5074437;28;20312;-71
2023/10/26 03:46:54;;;;;;;1.50;0.80;;;8.70;99.90;;;;;;5075409;28;20212;-71
2023/10/26 03:49:20;;;;;;;3.00;0.63;;;8.70;99.90;;;;;;5066368;28;20190;-75
2023/10/26 03:51:47;;;;;;;1.67;0.63;;;8.80;99.90;;;;;;5075499;28;20236;-72
2023/10/26 03:54:13;;;;;;;1.10;0.50;;;8.90;99.90;;;;;;5074052;28;20419;-70
2023/10/26 03:56:38;;;;;;;2.03;0.70;;;8.80;99.90;;;;;;5074671;28;20486;-72
2023/10/26 03:59:04;;;;;;;3.20;0.80;;;8.90;99.90;;;;;;5082843;28;20215;-73
2023/10/26 04:01:29;;;;;;;1.43;0.80;;;8.90;99.90;;;;;;5082112;28;20259;-74
2023/10/26 04:03:55;;;;;;;1.50;0.67;;;9.00;99.90;;;;;;5079121;28;20268;-72
2023/10/26 04:06:21;;;;;;;10.37;0.93;;;8.90;99.90;;;;;;5078076;28;20709;-71
2023/10/26 04:08:46;;;;;;;1.70;0.70;;;8.90;99.90;;;;;;5074151;28;20180;-74
2023/10/26 04:11:17;;;;;;;1.70;0.97;;;9.00;99.90;;;;;;5080708;28;20204;-73
2023/10/26 04:13:42;;;;;;;6.80;0.90;;;9.00;99.90;;;;;;5073054;28;20330;-77
2023/10/26 04:16:08;;;;;;;1.60;0.70;;;9.00;99.90;;;;;;5071824;28;20554;-73
2023/10/26 04:18:33;;;;;;;2.60;0.73;;;9.10;99.90;;;;;;5079111;28;20253;-70
2023/10/26 04:20:59;;;;;;;1.20;0.60;;;9.10;99.90;;;;;;5069704;28;20222;-70
2023/10/26 04:23:25;;;;;;;2.53;0.80;;;9.20;99.90;;;;;;5079856;28;20196;-73
2023/10/26 04:25:51;;;;;;;1.20;0.57;;;9.20;99.90;;;;;;5080934;28;20204;-73
2023/10/26 04:28:17;;;;;;;1.37;0.60;;;9.30;99.90;;;;;;5070335;28;20428;-71
2023/10/26 04:30:49;;;;;;;2.43;0.50;;;9.20;99.90;;;;;;5075043;28;20186;-71
2023/10/26 04:33:16;;;;;;;2.80;0.70;;;9.30;99.90;;;;;;5072128;28;20176;-74
2023/10/26 04:35:42;;;;;;;1.40;0.60;;;9.20;99.90;;;;;;5064495;28;20438;-72
2023/10/26 04:38:08;;;;;;;1.63;0.50;;;9.30;99.90;;;;;;5075907;28;20537;-71
2023/10/26 04:40:34;;;;;;;2.00;0.60;;;9.30;99.90;;;;;;5074810;28;20575;-72
2023/10/26 04:43:00;;;;;;;1.70;0.60;;;9.40;99.90;;;;;;5075803;28;20277;-73
2023/10/26 04:45:26;;;;;;;6.17;1.13;;;9.30;99.90;;;;;;5061856;28;21194;-71
2023/10/26 04:47:51;;;;;;;2.20;0.83;;;9.30;99.90;;;;;;5061892;28;20181;-74
2023/10/26 04:50:17;;;;;;;1.23;0.70;;;9.20;99.90;;;;;;5032426;28;20235;-71
2023/10/26 04:52:42;;;;;;;1.17;0.60;;;9.20;99.90;;;;;;5057613;28;20470;-72
2023/10/26 04:55:08;;;;;;;5.17;1.07;;;9.20;99.90;;;;;;5059680;28;20210;-74
2023/10/26 04:57:34;;;;;;;2.60;0.80;;;9.20;99.90;;;;;;5058886;28;20191;-73
2023/10/26 05:00:00;;;;;;;1.97;1.10;;;9.20;99.90;;;;;;5057855;28;20185;-76
2023/10/26 05:02:25;;;;;;;4.47;0.80;;;9.20;99.90;;;;;;5059586;28;20453;-71
2023/10/26 05:04:51;;;;;;;5.57;1.60;;;9.20;99.90;;;;;;5062163;28;20644;-71
2023/10/26 05:07:17;;;;;;;2.53;0.93;;;9.30;99.90;;;;;;5060654;28;20181;-72
2023/10/26 05:09:42;;;;;;;1.60;0.87;;;9.30;99.90;;;;;;5060008;28;20277;-73
2023/10/26 05:12:08;;;;;;;3.77;1.33;;;9.40;99.90;;;;;;5057973;28;20221;-73
2023/10/26 05:14:34;;;;;;;8.23;1.87;;;9.30;99.90;;;;;;5041663;28;20242;-73
2023/10/26 05:16:59;;;;;;;2.80;1.30;;;9.40;99.90;;;;;;5060360;28;20665;-72
2023/10/26 05:19:25;;;;;;;7.70;1.13;;;9.30;99.90;;;;;;5060689;28;20247;-71
2023/10/26 05:21:50;;;;;;;6.53;1.57;;;9.30;99.90;;;;;;5061073;28;20197;-74
2023/10/26 05:24:16;;;;;;;2.37;0.87;;;9.40;99.90;;;;;;5060883;28;20911;-73
2023/10/26 05:26:42;;;;;;;1.60;1.07;;;9.60;99.90;;;;;;5060990;28;20211;-72
2023/10/26 05:29:07;;;;;;;1.27;0.60;;;9.60;99.90;;;;;;5059707;28;20185;-72
2023/10/26 05:31:33;;;;;;;3.27;0.97;;;9.50;99.90;;;;;;5059726;28;20205;-74
2023/10/26 05:33:58;;;;;;;2.33;0.73;;;9.60;99.90;;;;;;5060481;28;20276;-74
2023/10/26 05:36:24;;;;;;;2.17;0.70;;;9.60;99.90;;;;;;5061212;28;20196;-72
2023/10/26 05:38:50;;;;;;;3.10;1.10;;;9.60;99.90;;;;;;5034146;28;20196;-72
2023/10/26 05:41:15;;;;;;;2.17;0.83;;;9.50;99.90;;;;;;5059561;28;20243;-75
2023/10/26 05:43:41;;;;;;;1.70;0.70;;;9.50;99.90;;;;;;5056122;28;20476;-75
2023/10/26 05:46:06;;;;;;;1.90;1.20;;;9.40;99.90;;;;;;5036830;28;20303;-72
2023/10/26 05:48:33;;;;;;;1.80;0.70;;;9.40;99.90;;;;;;5036588;28;20724;-75
2023/10/26 05:50:59;;;;;;;1.87;1.00;;;9.40;99.90;;;;;;5054025;28;20814;-71
2023/10/26 05:53:25;;;;;;;1.97;0.87;;;9.40;99.90;;;;;;5054448;28;20428;-73
2023/10/26 05:56:00;;;;;;;4.30;0.90;;;9.40;99.90;;;;;;5054924;28;20189;-73
2023/10/26 05:58:26;;;;;;;4.67;1.20;;;9.40;99.90;;;;;;5053023;28;20202;-71
2023/10/26 06:00:52;;;;;;;1.70;1.00;;;9.30;99.90;;;;;;5052567;28;20493;-74
2023/10/26 06:03:18;;;;;;;1.50;0.90;;;9.40;99.90;;;;;;5055250;28;20477;-71
2023/10/26 06:05:43;;;;;;;1.90;1.20;;;9.40;99.90;;;;;;5054565;28;20988;-75
2023/10/26 06:08:09;;;;;;;3.70;1.20;;;9.40;99.90;;;;;;5052796;28;20181;-76
2023/10/26 06:10:35;;;;;;;1.37;0.63;;;9.40;99.90;;;;;;5054103;28;20177;-73
2023/10/26 06:13:02;;;;;;;2.33;1.17;;;9.50;99.90;;;;;;5055021;28;20465;-72
2023/10/26 06:15:28;;;;;;;2.13;1.00;;;9.40;99.90;;;;;;5039069;28;20199;-74
2023/10/26 06:17:54;;;;;;;2.30;0.90;;;9.40;99.90;;;;;;5059670;28;20459;-71
2023/10/26 06:20:22;;;;;;;3.73;1.17;;;9.50;99.90;;;;;;5059252;28;20191;-73
2023/10/26 06:22:47;;;;;;;3.90;1.30;;;9.50;99.90;;;;;;5057494;28;20446;-71
2023/10/26 06:25:13;;;;;;;2.60;1.17;;;9.50;99.90;;;;;;5057998;28;20806;-71
2023/10/26 06:27:38;;;;;;;10.53;1.27;;;9.50;99.90;;;;;;5041462;28;20272;-75
2023/10/26 06:30:05;;;;;;;2.30;1.30;;;9.60;99.90;;;;;;5057977;28;20181;-69
2023/10/26 06:32:30;;;;;;;2.00;0.93;;;9.60;99.90;;;;;;5058899;28;20205;-69
2023/10/26 06:34:56;;;;;;;5.27;1.63;;;9.60;99.90;;;;;;5084896;28;20486;-79
2023/10/26 06:37:23;;;;;;;3.37;0.97;;;9.70;99.90;;;;;;5087412;28;20185;-79
2023/10/26 06:39:48;;;;;;;3.80;1.70;;;9.70;99.90;;;;;;5086933;28;20479;-79
2023/10/26 06:42:14;;;;;;;11.37;2.03;;;9.70;99.90;;;;;;5085128;28;21244;-79
2023/10/26 06:44:40;;;;;;;8.40;2.47;;;9.70;99.90;;;;;;5092140;28;20579;-75
2023/10/26 06:47:06;;;;;;;4.37;1.50;;;9.80;99.90;;;;;;5065193;28;20545;-72
2023/10/26 06:49:31;;;;;;;3.30;1.47;;;9.70;99.90;;;;;;5072465;28;20189;-73
2023/10/26 06:51:58;;;;;;;2.80;1.23;;;9.80;99.90;;;;;;5067463;28;20211;-71
2023/10/26 06:54:23;;;;;;;5.73;1.47;;;9.80;99.90;;;;;;5077435;28;20192;-71
2023/10/26 06:56:49;;;;;;;3.73;1.73;;;9.80;99.90;;;;;;5071286;28;21462;-75
2023/10/26 06:59:14;;;;;;;2.80;0.97;;;9.80;99.90;;;;;;5064865;28;20565;-74
2023/10/26 07:01:40;;;;;;;1.77;1.03;;;9.90;99.90;;;;;;5075702;28;20212;-72
2023/10/26 07:04:06;;;;;;;1.20;0.60;;;9.80;99.90;;;;;;5069161;28;20200;-72
2023/10/26 07:06:32;;;;;;;2.43;1.23;;;10.00;99.90;;;;;;5069510;28;20583;-70
2023/10/26 07:08:57;;;;;;;1.80;0.83;;;10.00;99.90;;;;;;5065045;28;20427;-70
2023/10/26 07:11:23;;;;;;;1.53;0.90;;;9.90;99.90;;;;;;5071927;28;20301;-70
2023/10/26 07:13:49;;;;;;;1.77;0.90;;;9.90;99.90;;;;;;5073667;28;20237;-72
2023/10/26 07:16:14;;;;;;;1.30;0.80;;;10.00;99.90;;;;;;5057144;28;20185;-71
2023/10/26 07:18:40;;;;;;;2.80;1.07;;;10.00;99.90;;;;;;5068439;28;20969;-70
2023/10/26 07:21:06;;;;;;;2.73;1.50;;;10.10;99.90;;;;;;5077028;28;20240;-74
2023/10/26 07:23:33;;;;;;;1.40;0.70;;;10.10;99.90;;;;;;5076524;28;20201;-73
2023/10/26 07:25:58;;;;;;;2.50;1.00;;;10.10;99.90;;;;;;5078049;28;20514;-72
2023/10/26 07:28:24;;;;;;;2.30;0.90;;;10.10;99.90;;;;;;5087084;28;20527;-72
2023/10/26 07:30:50;;;;;;;4.83;0.83;;;10.20;99.90;;;;;;5075326;28;20185;-72
2023/10/26 07:33:18;;;;;;;1.87;0.57;;;10.20;99.90;;;;;;5082778;28;20307;-73
2023/10/26 07:35:50;;;;;;;1.87;0.90;;;10.20;99.90;;;;;;5083412;28;20418;-77
2023/10/26 07:38:16;;;;;;;2.10;0.70;;;10.30;99.90;;;;;;5103900;28;20410;-78
2023/10/26 07:40:48;;;;;;;1.50;0.70;;;10.30;99.90;;;;;;5096630;28;20517;-76
2023/10/26 07:43:14;;;;;;;2.43;1.03;;;10.30;99.90;;;;;;5095199;28;20459;-75
2023/10/26 07:45:39;;;;;;;2.40;0.97;;;10.30;99.90;;;;;;5067625;28;20479;-71
2023/10/26 07:48:05;;;;;;;1.33;0.60;;;10.40;99.90;;;;;;5075902;28;20173;-69
2023/10/26 07:50:31;;;;;;;4.60;1.53;;;10.40;99.90;;;;;;5060922;28;20292;-72
2023/10/26 07:52:56;;;;;;;4.30;0.60;;;10.40;99.90;;;;;;5052898;28;20201;-72
2023/10/26 07:55:22;;;;;;;1.43;0.70;;;10.40;99.90;;;;;;5057407;28;20185;-71
2023/10/26 07:57:48;;;;;;;1.40;0.60;;;10.40;99.90;;;;;;5058440;28;20685;-74
2023/10/26 08:00:14;;;;;;;1.10;0.50;;;10.40;99.90;;;;;;5058575;28;20226;-71
2023/10/26 08:02:40;;;;;;;2.03;0.67;;;10.30;99.90;;;;;;5062001;28;20208;-71
2023/10/26 08:05:06;;;;;;;4.27;0.60;;;10.40;99.90;;;;;;5056884;28;20322;-72
2023/10/26 08:07:32;;;;;;;1.67;0.70;;;10.40;99.90;;;;;;5041925;28;20521;-72
2023/10/26 08:09:57;;;;;;;1.10;0.50;;;10.50;99.90;;;;;;5052949;28;20455;-71
2023/10/26 08:12:23;;;;;;;2.00;1.10;;;10.40;99.90;;;;;;5057264;28;20430;-71
2023/10/26 08:14:53;;;;;;;2.43;1.00;;;10.50;99.90;;;;;;5063230;28;20626;-75
2023/10/26 08:17:19;;;;;;;1.57;0.70;;;10.50;99.90;;;;;;5054909;28;20550;-71
2023/10/26 08:19:44;;;;;;;3.13;1.10;;;10.50;99.90;;;;;;5060215;28;20936;-71
2023/10/26 08:22:10;;;;;;;4.17;1.70;;;10.50;99.90;;;;;;5058097;28;20204;-72
2023/10/26 08:24:36;;;;;;;4.00;1.30;;;10.50;99.90;;;;;;5060998;28;20195;-70
2023/10/26 08:27:02;;;;;;;5.57;1.00;;;10.50;99.90;;;;;;5056553;28;20759;-73
2023/10/26 08:29:28;;;;;;;2.53;1.20;;;10.60;99.90;;;;;;5059186;28;20223;-73
2023/10/26 08:31:55;;;;;;;1.80;0.80;;;10.60;99.90;;;;;;5045989;28;20296;-71
2023/10/26 08:34:20;;;;;;;2.70;0.77;;;10.70;99.90;;;;;;5058905;28;20464;-70
2023/10/26 08:36:46;;;;;;;3.03;0.63;;;10.70;99.90;;;;;;5059284;28;20531;-70
2023/10/26 08:39:12;;;;;;;2.50;1.10;;;10.80;99.90;;;;;;5059535;28;20280;-71
2023/10/26 08:41:38;;;;;;;3.10;1.00;;;10.80;99.90;;;;;;5062811;28;20205;-72
2023/10/26 08:44:04;;;;;;;3.00;1.20;;;10.80;99.90;;;;;;5059652;28;20455;-72
2023/10/26 08:46:30;;;;;;;3.30;1.40;;;10.90;99.90;;;;;;5056803;28;20483;-73
2023/10/26 08:48:58;;;;;;;3.40;1.70;;;10.90;99.90;;;;;;5041335;28;20596;-74
2023/10/26 08:51:25;;;;;;;9.80;2.07;;;11.00;99.90;;;;;;5058522;28;20283;-73
2023/10/26 08:53:51;;;;;;;6.50;1.70;;;11.00;99.90;;;;;;5056737;28;21095;-72
2023/10/26 08:56:21;;;;;;;3.83;1.53;;;11.00;99.90;;;;;;5058507;28;20555;-74
2023/10/26 08:58:47;;;;;;;2.90;1.43;;;11.00;99.90;;;;;;5058747;28;20322;-74
2023/10/26 09:01:13;;;;;;;2.80;1.10;;;11.20;99.90;;;;;;5057023;28;20452;-72
2023/10/26 09:03:40;;;;;;;1.97;1.07;;;11.10;99.90;;;;;;5059139;28;20478;-71
2023/10/26 09:06:05;;;;;;;1.80;0.70;;;11.10;99.90;;;;;;5038360;28;21436;-71
2023/10/26 09:08:31;;;;;;;1.43;0.80;;;11.00;99.90;;;;;;5057462;28;20185;-72
2023/10/26 09:10:56;;;;;;;1.10;0.50;;;11.00;99.90;;;;;;5057308;28;20181;-75
2023/10/26 09:13:24;;;;;;;1.50;0.83;;;11.00;99.90;;;;;;5056496;28;20607;-71
2023/10/26 09:15:52;;;;;;;1.87;0.60;;;11.00;99.90;;;;;;5056781;28;20252;-71
2023/10/26 09:18:18;;;;;;;1.30;0.70;;;11.00;99.90;;;;;;5059603;28;21031;-71
2023/10/26 09:21:03;;;;;;;1.30;0.60;;;10.90;99.90;;;;;;5056963;28;20433;-78
2023/10/26 09:23:31;;;;;;;1.10;0.53;;;10.80;99.90;;;;;;5057616;28;20189;-74
2023/10/26 09:26:04;;;;;;;1.73;0.70;;;10.80;99.90;;;;;;5040100;28;20471;-72
2023/10/26 09:28:47;;;;;;;3.57;0.80;;;10.80;99.90;;;;;;5060732;28;21303;-71
2023/10/26 09:31:13;;;;;;;1.80;0.80;;;10.80;99.90;;;;;;5058805;28;21230;-73
2023/10/26 09:33:39;;;;;;;1.40;0.70;;;10.80;99.90;;;;;;5058004;28;20435;-74
2023/10/26 09:36:15;;;;;;;2.90;0.70;;;10.80;99.90;;;;;;5041288;28;20718;-79
2023/10/26 09:38:41;;;;;;;1.47;0.87;;;10.70;99.90;;;;;;5056095;28;20984;-73
2023/10/26 09:41:11;;;;;;;3.13;1.20;;;10.70;99.90;;;;;;5039243;28;20482;-72
2023/10/26 09:43:38;;;;;;;1.90;0.90;;;10.60;99.90;;;;;;5063816;28;20470;-73
2023/10/26 09:46:04;;;;;;;1.53;0.87;;;10.70;99.90;;;;;;5072949;28;20470;-73
2023/10/26 09:48:30;;;;;;;2.13;0.60;;;10.70;99.90;;;;;;5069354;28;21072;-73
2023/10/26 09:51:00;;;;;;;1.10;0.50;;;10.70;99.90;;;;;;5072513;28;20427;-73
2023/10/26 09:53:32;;;;;;;1.30;0.60;;;10.70;99.90;;;;;;5066660;28;21120;-73
2023/10/26 09:55:59;;;;;;;1.53;0.70;;;10.80;99.90;;;;;;5077197;28;20430;-73
2023/10/26 09:58:27;;;;;;;1.30;0.50;;;10.80;99.90;;;;;;5076633;28;20454;-72
2023/10/26 10:00:53;;;;;;;1.13;0.50;;;10.90;99.90;;;;;;5068429;28;20886;-72
2023/10/26 10:03:18;;;;;;;1.10;0.40;;;11.00;99.90;;;;;;5082795;28;20465;-72
2023/10/26 10:05:47;;;;;;;1.37;0.60;;;11.00;99.90;;;;;;5065324;28;20246;-71
2023/10/26 10:08:13;;;;;;;1.57;0.60;;;11.00;99.90;;;;;;5074117;28;20680;-74
2023/10/26 10:11:15;;;;;;;1.30;0.60;;;11.00;99.90;;;;;;5076212;28;20443;-73
2023/10/26 10:13:40;;;;;;;1.20;0.60;;;11.00;99.90;;;;;;5056717;28;20438;-76
2023/10/26 10:16:35;;;;;;;1.10;0.50;;;11.10;99.90;;;;;;5066934;28;20986;-72
2023/10/26 10:19:20;;;;;;;1.63;0.80;;;11.20;99.90;;;;;;5064249;28;20521;-76
2023/10/26 10:21:47;;;;;;;1.13;0.47;;;11.30;99.90;;;;;;5070542;28;20518;-69
2023/10/26 10:24:35;;;;;;;4.13;0.90;;;11.40;99.90;;;;;;5071709;28;20931;-72
2023/10/26 10:27:10;;;;;;;1.20;0.60;;;11.50;99.90;;;;;;5070132;28;20467;-71
2023/10/26 10:29:36;;;;;;;3.23;0.73;;;11.50;99.90;;;;;;5078110;28;20422;-71
2023/10/26 10:32:02;;;;;;;2.23;1.00;;;11.60;99.90;;;;;;5074233;28;20450;-71
2023/10/26 10:34:45;;;;;;;1.20;0.50;;;11.90;99.90;;;;;;5076637;28;20527;-71
2023/10/26 10:37:15;;;;;;;1.20;0.40;;;12.10;99.90;;;;;;5071920;28;20197;-71
2023/10/26 10:40:15;;;;;;;1.10;0.50;;;12.10;99.90;;;;;;5075819;28;20428;-71
2023/10/26 10:42:49;;;;;;;1.50;0.77;;;12.30;99.90;;;;;;5048284;28;20490;-72
2023/10/26 10:45:16;;;;;;;1.13;0.50;;;12.30;99.90;;;;;;5059062;28;20501;-74
2023/10/26 10:47:43;;;;;;;1.60;0.60;;;12.20;99.90;;;;;;5063236;28;20424;-73
2023/10/26 10:50:27;;;;;;;2.13;0.70;;;12.30;99.90;;;;;;5057739;28;21074;-74
2023/10/26 10:52:54;;;;;;;7.47;3.40;;;12.30;99.90;;;;;;5055928;28;21086;-72
2023/10/26 10:55:24;;;;;;;3.10;1.50;;;12.30;99.90;;;;;;5057435;28;20518;-70
2023/10/26 10:58:01;;;;;;;1.87;1.00;;;12.20;99.90;;;;;;5060422;28;20431;-73
2023/10/26 11:00:48;;;;;;;2.13;1.40;;;12.20;99.90;;;;;;5057772;28;21210;-72
2023/10/26 11:03:23;;;;;;;1.43;0.87;;;12.20;99.90;;;;;;5046215;28;20427;-74
2023/10/26 11:05:49;;;;;;;2.93;1.70;;;12.10;99.90;;;;;;5056889;28;20557;-76
2023/10/26 11:08:14;;;;;;;2.33;1.60;;;12.00;99.90;;;;;;5059891;28;20973;-73
2023/10/26 11:10:40;;;;;;;5.23;1.80;;;12.00;99.90;;;;;;5060892;28;20262;-72
2023/10/26 11:13:06;;;;;;;1.93;1.40;;;11.90;99.90;;;;;;5065572;28;20767;-75
2023/10/26 11:15:37;;;;;;;1.83;0.80;;;11.90;99.90;;;;;;5061611;28;20189;-74
2023/10/26 11:18:04;;;;;;;2.20;0.93;;;12.00;99.90;;;;;;5075841;28;20173;-77
2023/10/26 11:20:37;;;;;;;1.30;0.60;;;12.00;99.90;;;;;;5088498;28;20430;-81
2023/10/26 11:23:07;;;;;;;1.13;0.50;;;12.00;99.90;;;;;;5090061;28;20447;-80
2023/10/26 11:25:33;;;;;;;1.20;0.50;;;12.00;99.90;;;;;;5061212;28;20476;-81
2023/10/26 11:27:59;;;;;;;1.23;0.60;;;12.00;99.90;;;;;;5082688;28;20438;-80
2023/10/26 11:30:25;;;;;;;1.20;0.60;;;12.00;99.90;;;;;;5083426;28;20200;-72
2023/10/26 11:32:51;;;;;;;1.50;0.70;;;12.10;99.90;;;;;;5030764;28;20996;-70
2023/10/26 11:35:17;;;;;;;1.60;0.80;;;12.10;99.90;;;;;;5059287;28;20441;-71
2023/10/26 11:37:44;;;;;;;1.90;1.13;;;12.20;99.90;;;;;;5058333;28;20181;-72
2023/10/26 11:40:15;;;;;;;1.60;0.90;;;12.30;99.90;;;;;;5060640;28;20197;-71
2023/10/26 11:42:49;;;;;;;3.33;0.93;;;12.30;99.90;;;;;;5052254;28;20463;-71
2023/10/26 11:45:16;;;;;;;1.80;1.03;;;12.40;99.90;;;;;;5060566;28;20442;-71
2023/10/26 11:47:52;;;;;;;1.60;1.00;;;12.70;99.90;;;;;;5063193;28;20431;-72
2023/10/26 11:50:32;;;;;;;4.23;1.10;;;12.80;99.90;;;;;;5053419;28;20817;-72
2023/10/26 11:53:00;;;;;;;1.70;0.80;;;13.10;99.90;;;;;;5047634;28;20549;-71
2023/10/26 11:55:27;;;;;;;2.50;1.13;;;13.40;99.90;;;;;;5066911;28;20458;-72
2023/10/26 11:57:56;;;;;;;5.43;0.90;;;13.50;99.90;;;;;;5045241;28;20439;-72
2023/10/26 12:00:22;;;;;;;2.37;0.80;;;13.60;99.90;;;;;;5062296;28;20465;-74
2023/10/26 12:02:48;;;;;;;1.90;1.00;;;13.60;99.90;;;;;;5060579;28;20561;-72
2023/10/26 12:05:17;;;;;;;1.50;0.60;;;13.80;99.90;;;;;;5060094;28;20935;-70
2023/10/26 12:07:44;;;;;;;5.80;1.43;;;14.00;99.90;;;;;;5059182;28;20185;-70
2023/10/26 12:10:10;;;;;;;1.50;0.70;;;14.00;99.90;;;;;;5062790;28;20434;-70
2023/10/26 12:12:35;;;;;;;5.73;1.10;;;14.10;99.90;;;;;;5056503;28;20443;-72
2023/10/26 12:15:01;;;;;;;1.70;1.00;;;14.30;99.90;;;;;;5064150;28;20254;-74
2023/10/26 12:17:26;;;;;;;1.70;0.87;;;14.40;99.90;;;;;;5068715;28;20818;-74
2023/10/26 12:19:52;;;;;;;5.17;1.00;;;14.40;99.90;;;;;;5066668;28;20185;-72
2023/10/26 12:22:19;;;;;;;1.93;0.90;;;14.40;99.90;;;;;;5065307;28;20228;-75
2023/10/26 12:24:44;;;;;;;3.83;0.87;;;14.30;99.90;;;;;;5066450;28;20190;-74
2023/10/26 12:27:10;;;;;;;2.33;1.20;;;14.30;99.90;;;;;;5061077;28;20583;-76
2023/10/26 12:29:36;;;;;;;3.87;1.00;;;14.20;99.90;;;;;;5062662;28;20208;-72
2023/10/26 12:32:01;;;;;;;4.60;1.03;;;14.30;99.90;;;;;;5060127;28;20208;-72
2023/10/26 12:34:27;;;;;;;2.17;0.80;;;14.40;99.90;;;;;;5050576;28;20182;-75
2023/10/26 12:36:52;;;;;;;4.00;0.73;;;14.50;99.90;;;;;;5068200;28;20189;-72
2023/10/26 12:39:18;;;;;;;2.40;0.83;;;14.60;99.90;;;;;;5069258;28;20571;-72
2023/10/26 12:41:44;;;;;;;2.17;1.07;;;14.60;99.90;;;;;;5067861;28;20262;-71
2023/10/26 12:44:09;;;;;;;1.50;0.80;;;14.50;99.90;;;;;;5062303;28;20248;-70
2023/10/26 12:46:35;;;;;;;1.57;0.60;;;14.50;99.90;;;;;;5063490;28;20221;-67
2023/10/26 12:49:00;;;;;;;2.53;0.60;;;14.50;99.90;;;;;;5062320;28;20271;-75